AXM5106 WMKK-WBKK
Flight info
| Callsign | AXM5106 |
|---|---|
| Flight time | N/A |
| Altitude | 37000 |
| Route | WMKK/14R KIMAT Y344 VPK M758 VIDIP DCT EGENU |
| Aircraft | A20N/M-SDE2E3FGHIRWXY/LB1 |
Departure
| Time | N/A |
|---|---|
| Airport | Kuala Lumpur International Airport (WMKK) |
Arrival
| Time | 2026-04-30 19:05 |
|---|---|
| Airport | Kota Kinabalu International Airport (WBKK) |
| Time | Latitude | Longitude | Altitude | Speed | Heading |
|---|---|---|---|---|---|
| 2026-04-30 17:39 | 3.56410 | 106.92577 | 36926 ft | 446 kts | 82° |
| 2026-04-30 17:42 | 3.63991 | 107.22796 | 36927 ft | 451 kts | 76° |
| 2026-04-30 17:43 | 3.67971 | 107.37985 | 36927 ft | 452 kts | 76° |
| 2026-04-30 17:44 | 3.72747 | 107.56227 | 36927 ft | 452 kts | 76° |
| 2026-04-30 17:48 | 3.85572 | 108.05336 | 36901 ft | 452 kts | 76° |
| 2026-04-30 17:50 | 3.91912 | 108.29624 | 36901 ft | 452 kts | 76° |
| 2026-04-30 17:52 | 3.96666 | 108.47848 | 36901 ft | 452 kts | 76° |
| 2026-04-30 17:54 | 4.02985 | 108.72071 | 36901 ft | 452 kts | 77° |
| 2026-04-30 17:56 | 4.09324 | 108.96385 | 36901 ft | 452 kts | 76° |
| 2026-04-30 17:58 | 4.14120 | 109.14526 | 36901 ft | 449 kts | 75° |
| 2026-04-30 18:00 | 4.20430 | 109.38608 | 36901 ft | 448 kts | 75° |
| 2026-04-30 18:01 | 4.24369 | 109.53667 | 36901 ft | 448 kts | 75° |
| 2026-04-30 18:02 | 4.29025 | 109.71778 | 36901 ft | 448 kts | 75° |
| 2026-04-30 18:04 | 4.33652 | 109.89849 | 36901 ft | 448 kts | 75° |
| 2026-04-30 18:06 | 4.39844 | 110.13997 | 36901 ft | 448 kts | 75° |
| 2026-04-30 18:08 | 4.45253 | 110.35120 | 36901 ft | 448 kts | 75° |
| 2026-04-30 18:10 | 4.51409 | 110.59190 | 36901 ft | 448 kts | 75° |
| 2026-04-30 18:11 | 4.56800 | 110.80353 | 36901 ft | 448 kts | 75° |
| 2026-04-30 18:13 | 4.60642 | 110.95415 | 36901 ft | 448 kts | 75° |
| 2026-04-30 18:14 | 4.64477 | 111.10455 | 36901 ft | 446 kts | 76° |
| 2026-04-30 18:15 | 4.69061 | 111.28463 | 36901 ft | 445 kts | 76° |
| 2026-04-30 18:16 | 4.72115 | 111.40466 | 36901 ft | 445 kts | 76° |
| 2026-04-30 18:17 | 4.73642 | 111.46467 | 36901 ft | 445 kts | 76° |
| 2026-04-30 18:18 | 4.75933 | 111.55477 | 36901 ft | 445 kts | 76° |
| 2026-04-30 18:18 | 4.77454 | 111.61457 | 36901 ft | 445 kts | 76° |
| 2026-04-30 18:19 | 4.78986 | 111.67487 | 36901 ft | 445 kts | 76° |
| 2026-04-30 18:19 | 4.80514 | 111.73513 | 36901 ft | 445 kts | 76° |
| 2026-04-30 18:20 | 4.82037 | 111.79494 | 36901 ft | 445 kts | 76° |
| 2026-04-30 18:20 | 4.83559 | 111.85485 | 36901 ft | 445 kts | 76° |
| 2026-04-30 18:21 | 4.85101 | 111.91515 | 36901 ft | 445 kts | 76° |
| 2026-04-30 18:21 | 4.86640 | 111.97478 | 36901 ft | 445 kts | 76° |
| 2026-04-30 18:22 | 4.88196 | 112.03492 | 36901 ft | 445 kts | 76° |
| 2026-04-30 18:22 | 4.90526 | 112.12486 | 36901 ft | 445 kts | 76° |
| 2026-04-30 18:23 | 4.92072 | 112.18453 | 36901 ft | 445 kts | 76° |
| 2026-04-30 18:23 | 4.93629 | 112.24469 | 36901 ft | 445 kts | 76° |
| 2026-04-30 18:24 | 4.95961 | 112.33478 | 36901 ft | 445 kts | 76° |
| 2026-04-30 18:25 | 4.97507 | 112.39456 | 36900 ft | 446 kts | 76° |
| 2026-04-30 18:25 | 4.99844 | 112.48495 | 36900 ft | 448 kts | 76° |
| 2026-04-30 18:26 | 5.02186 | 112.57555 | 36900 ft | 450 kts | 76° |
| 2026-04-30 18:27 | 5.04538 | 112.66666 | 36901 ft | 452 kts | 76° |
| 2026-04-30 18:28 | 5.06899 | 112.75850 | 36900 ft | 454 kts | 76° |
| 2026-04-30 18:28 | 5.09261 | 112.85016 | 36900 ft | 456 kts | 75° |
| 2026-04-30 18:29 | 5.12481 | 112.97356 | 36901 ft | 458 kts | 75° |
| 2026-04-30 18:30 | 5.15666 | 113.09654 | 36901 ft | 457 kts | 76° |
| 2026-04-30 18:31 | 5.18053 | 113.18920 | 36901 ft | 457 kts | 76° |
| 2026-04-30 18:32 | 5.20423 | 113.28136 | 36901 ft | 457 kts | 76° |
| 2026-04-30 18:33 | 5.22800 | 113.37383 | 36901 ft | 457 kts | 76° |
| 2026-04-30 18:33 | 5.25174 | 113.46622 | 36901 ft | 457 kts | 76° |
| 2026-04-30 18:34 | 5.27546 | 113.55861 | 36901 ft | 457 kts | 76° |
| 2026-04-30 18:35 | 5.29135 | 113.62054 | 36901 ft | 457 kts | 76° |
| 2026-04-30 18:35 | 5.30708 | 113.68198 | 36901 ft | 457 kts | 76° |
| 2026-04-30 18:36 | 5.33066 | 113.77426 | 36901 ft | 457 kts | 76° |
| 2026-04-30 18:37 | 5.35441 | 113.86698 | 36901 ft | 457 kts | 76° |
| 2026-04-30 18:37 | 5.37018 | 113.92852 | 36901 ft | 457 kts | 76° |
| 2026-04-30 18:38 | 5.38598 | 113.99013 | 36901 ft | 457 kts | 76° |
| 2026-04-30 18:38 | 5.40179 | 114.05178 | 36901 ft | 457 kts | 76° |
| 2026-04-30 18:39 | 5.41751 | 114.11315 | 36901 ft | 457 kts | 76° |
| 2026-04-30 18:39 | 5.43326 | 114.17518 | 36901 ft | 457 kts | 76° |
| 2026-04-30 18:40 | 5.44878 | 114.23660 | 36901 ft | 457 kts | 76° |
| 2026-04-30 18:40 | 5.46428 | 114.29770 | 36740 ft | 441 kts | 76° |
| 2026-04-30 18:40 | 5.47175 | 114.32713 | 36472 ft | 431 kts | 76° |
| 2026-04-30 18:41 | 5.47904 | 114.35583 | 36142 ft | 424 kts | 76° |
| 2026-04-30 18:41 | 5.48588 | 114.38273 | 35711 ft | 421 kts | 76° |
| 2026-04-30 18:41 | 5.49312 | 114.41127 | 35163 ft | 420 kts | 76° |
| 2026-04-30 18:41 | 5.50027 | 114.43941 | 34575 ft | 421 kts | 76° |
| 2026-04-30 18:42 | 5.50749 | 114.46786 | 33961 ft | 422 kts | 76° |
| 2026-04-30 18:42 | 5.52193 | 114.52474 | 32709 ft | 424 kts | 76° |
| 2026-04-30 18:42 | 5.52919 | 114.55333 | 32067 ft | 425 kts | 76° |
| 2026-04-30 18:45 | 5.60326 | 114.84611 | 25101 ft | 436 kts | 78° |
| 2026-04-30 18:45 | 5.61069 | 114.87546 | 24544 ft | 433 kts | 78° |
| 2026-04-30 18:45 | 5.61810 | 114.90471 | 23985 ft | 430 kts | 78° |
| 2026-04-30 18:46 | 5.62536 | 114.93337 | 23434 ft | 428 kts | 78° |
| 2026-04-30 18:46 | 5.63264 | 114.96212 | 22877 ft | 425 kts | 78° |
| 2026-04-30 18:46 | 5.63995 | 114.99097 | 22414 ft | 420 kts | 78° |
| 2026-04-30 18:46 | 5.64727 | 115.01896 | 22157 ft | 421 kts | 75° |
| 2026-04-30 18:47 | 5.65752 | 115.04359 | 21599 ft | 425 kts | 65° |
| 2026-04-30 18:47 | 5.67351 | 115.07214 | 20546 ft | 434 kts | 62° |
| 2026-04-30 18:47 | 5.68878 | 115.09839 | 19808 ft | 434 kts | 57° |
| 2026-04-30 18:47 | 5.70379 | 115.12423 | 19220 ft | 430 kts | 57° |
| 2026-04-30 18:48 | 5.71773 | 115.14833 | 18600 ft | 428 kts | 57° |
| 2026-04-30 18:48 | 5.73260 | 115.17437 | 17922 ft | 427 kts | 57° |
| 2026-04-30 18:48 | 5.74724 | 115.20029 | 17232 ft | 427 kts | 58° |
| 2026-04-30 18:48 | 5.76159 | 115.22588 | 16569 ft | 426 kts | 58° |
| 2026-04-30 18:49 | 5.77601 | 115.25171 | 15943 ft | 424 kts | 58° |
| 2026-04-30 18:49 | 5.79043 | 115.27762 | 15340 ft | 422 kts | 58° |
| 2026-04-30 18:49 | 5.80457 | 115.30306 | 14762 ft | 419 kts | 59° |
| 2026-04-30 18:49 | 5.81874 | 115.32858 | 14193 ft | 416 kts | 59° |
| 2026-04-30 18:50 | 5.83270 | 115.35374 | 13642 ft | 413 kts | 59° |
| 2026-04-30 18:50 | 5.84667 | 115.37891 | 13097 ft | 411 kts | 59° |
| 2026-04-30 18:50 | 5.86032 | 115.40352 | 12572 ft | 408 kts | 59° |
| 2026-04-30 18:50 | 5.87414 | 115.42844 | 12036 ft | 405 kts | 60° |
| 2026-04-30 18:51 | 5.88772 | 115.45293 | 11526 ft | 402 kts | 60° |
| 2026-04-30 18:51 | 5.90118 | 115.47726 | 11044 ft | 398 kts | 60° |
| 2026-04-30 18:51 | 5.91453 | 115.50140 | 10578 ft | 394 kts | 60° |
| 2026-04-30 18:51 | 5.92777 | 115.52531 | 10331 ft | 383 kts | 60° |
| 2026-04-30 18:52 | 5.94041 | 115.54816 | 10231 ft | 368 kts | 60° |
| 2026-04-30 18:52 | 5.95255 | 115.57007 | 10134 ft | 347 kts | 60° |
| 2026-04-30 18:52 | 5.96382 | 115.59041 | 10060 ft | 324 kts | 59° |
| 2026-04-30 18:52 | 5.97457 | 115.60980 | 9993 ft | 312 kts | 59° |
| 2026-04-30 18:53 | 5.98506 | 115.62871 | 9668 ft | 310 kts | 59° |
| 2026-04-30 18:53 | 5.99549 | 115.64750 | 9350 ft | 309 kts | 59° |
| 2026-04-30 18:53 | 6.00582 | 115.66619 | 9040 ft | 306 kts | 60° |
| 2026-04-30 18:53 | 6.01606 | 115.68481 | 8735 ft | 303 kts | 60° |
| 2026-04-30 18:54 | 6.02628 | 115.70335 | 8432 ft | 301 kts | 59° |
| 2026-04-30 18:54 | 6.03632 | 115.72153 | 8134 ft | 298 kts | 59° |
| 2026-04-30 18:54 | 6.04638 | 115.73971 | 7834 ft | 295 kts | 59° |
| 2026-04-30 18:54 | 6.05628 | 115.75758 | 7538 ft | 293 kts | 59° |
| 2026-04-30 18:55 | 6.06614 | 115.77535 | 7242 ft | 290 kts | 59° |
| 2026-04-30 18:55 | 6.08551 | 115.81032 | 6656 ft | 286 kts | 59° |
| 2026-04-30 18:55 | 6.09522 | 115.82788 | 6360 ft | 284 kts | 59° |
| 2026-04-30 18:56 | 6.11358 | 115.86252 | 5775 ft | 280 kts | 65° |
| 2026-04-30 18:56 | 6.12095 | 115.88053 | 5487 ft | 278 kts | 68° |
| 2026-04-30 18:56 | 6.12767 | 115.89850 | 5202 ft | 276 kts | 69° |
| 2026-04-30 18:57 | 6.14092 | 115.93452 | 4633 ft | 272 kts | 69° |
| 2026-04-30 18:57 | 6.14741 | 115.95213 | 4353 ft | 271 kts | 69° |
| 2026-04-30 18:57 | 6.15392 | 115.96976 | 4083 ft | 268 kts | 69° |
| 2026-04-30 18:58 | 6.16633 | 116.00333 | 3991 ft | 244 kts | 69° |
| 2026-04-30 18:58 | 6.17182 | 116.01962 | 3985 ft | 246 kts | 80° |
| 2026-04-30 18:58 | 6.17060 | 116.03630 | 3819 ft | 245 kts | 110° |
| 2026-04-30 18:59 | 6.15742 | 116.06756 | 3312 ft | 240 kts | 115° |
| 2026-04-30 19:00 | 6.13795 | 116.11359 | 2570 ft | 237 kts | 116° |
| 2026-04-30 19:00 | 6.12820 | 116.12640 | 2302 ft | 229 kts | 153° |
| 2026-04-30 19:00 | 6.09894 | 116.12407 | 2308 ft | 221 kts | 211° |
| 2026-04-30 19:01 | 6.07260 | 116.10893 | 2276 ft | 207 kts | 209° |
| 2026-04-30 19:01 | 6.05976 | 116.10280 | 2276 ft | 204 kts | 206° |
| 2026-04-30 19:02 | 6.03371 | 116.09179 | 1831 ft | 203 kts | 205° |
| 2026-04-30 19:02 | 6.00818 | 116.08114 | 1385 ft | 189 kts | 205° |
| 2026-04-30 19:03 | 5.98571 | 116.07167 | 847 ft | 165 kts | 205° |
| 2026-04-30 19:03 | 5.96578 | 116.06327 | 424 ft | 149 kts | 205° |
| 2026-04-30 19:04 | 5.94665 | 116.05520 | 35 ft | 149 kts | 204° |
| 2026-04-30 19:04 | 5.93195 | 116.04896 | 15 ft | 67 kts | 202° |
| 2026-04-30 19:05 | 5.92668 | 116.04761 | 15 ft | 22 kts | 174° |
| 2026-04-30 19:05 | 5.92418 | 116.04779 | 14 ft | 12 kts | 157° |
| 2026-04-30 19:06 | 5.92467 | 116.04901 | 15 ft | 13 kts | 23° |
| 2026-04-30 19:06 | 5.92519 | 116.04923 | 14 ft | 4 kts | 25° |
| 2026-04-30 19:06 | 5.92507 | 116.04974 | 14 ft | 2 kts | 112° |
| 2026-04-30 19:07 | 5.92504 | 116.04981 | 14 ft | 0 kts | 112° |